Time;durP1;ratioP1;P1;durP2;ratioP2;P2;SDS_P1;SDS_P2;PMS_P1;PMS_P2;Temp;Humidity;BMP_temperature;BMP_pressure;BME280_temperature;BME280_humidity;BME280_pressure;Samples;Min_cycle;Max_cycle;Signal;HPM_P1;HPM_P2
2022/05/11 00:00:11;;;;;;;19.02;10.05;;;12.80;99.90;;;;;;4997154;28;20516;-85
2022/05/11 00:02:37;;;;;;;20.38;9.68;;;12.80;99.90;;;;;;4997067;28;20061;-85
2022/05/11 00:05:09;;;;;;;20.55;9.90;;;12.80;99.90;;;;;;4981267;28;20049;-84
2022/05/11 00:07:34;;;;;;;21.10;9.60;;;12.80;99.90;;;;;;4981207;28;20052;-84
2022/05/11 00:10:01;;;;;;;19.35;10.00;;;12.80;99.90;;;;;;4996842;28;20129;-85
2022/05/11 00:12:26;;;;;;;20.58;9.85;;;12.90;99.90;;;;;;4997277;28;20437;-85
2022/05/11 00:14:52;;;;;;;17.52;9.30;;;12.80;99.90;;;;;;4997056;28;20034;-85
2022/05/11 00:17:18;;;;;;;18.60;9.30;;;13.20;99.90;;;;;;4996939;28;20125;-85
2022/05/11 00:19:44;;;;;;;19.08;9.40;;;13.00;99.90;;;;;;4997586;28;20053;-85
2022/05/11 00:22:09;;;;;;;16.83;9.18;;;13.00;99.90;;;;;;4997117;28;20033;-85
2022/05/11 00:24:36;;;;;;;16.23;8.98;;;13.00;99.90;;;;;;4997126;28;20069;-85
2022/05/11 00:27:03;;;;;;;16.13;9.07;;;12.90;99.90;;;;;;4980801;28;20045;-85
2022/05/11 00:29:30;;;;;;;18.95;8.35;;;12.90;99.90;;;;;;4996941;28;20038;-85
2022/05/11 00:31:56;;;;;;;18.05;9.10;;;13.00;99.90;;;;;;4996531;28;20429;-85
2022/05/11 00:34:22;;;;;;;15.55;8.27;;;12.90;99.90;;;;;;4996534;28;20052;-85
2022/05/11 00:36:48;;;;;;;16.45;7.85;;;12.90;99.90;;;;;;4996750;28;20401;-85
2022/05/11 00:39:13;;;;;;;15.55;8.65;;;12.90;99.90;;;;;;4996721;28;20048;-85
2022/05/11 00:41:40;;;;;;;14.75;8.18;;;12.90;99.90;;;;;;4996641;28;20073;-85
2022/05/11 00:44:09;;;;;;;16.58;8.25;;;13.00;99.90;;;;;;4996443;28;20042;-85
2022/05/11 00:46:57;;;;;;;16.05;8.05;;;12.90;99.90;;;;;;4996657;28;20144;-85
2022/05/11 00:49:42;;;;;;;15.80;8.25;;;12.90;99.90;;;;;;4980351;28;20108;-85
2022/05/11 00:52:23;;;;;;;16.27;8.13;;;12.90;99.90;;;;;;4996083;28;20046;-85
2022/05/11 00:54:57;;;;;;;16.92;7.82;;;12.90;99.90;;;;;;5013919;28;20405;-85
2022/05/11 00:57:34;;;;;;;18.85;8.35;;;12.90;99.90;;;;;;4996631;28;20096;-85
2022/05/11 01:00:01;;;;;;;15.07;7.82;;;12.90;99.90;;;;;;4996552;28;20497;-85
2022/05/11 01:02:28;;;;;;;18.85;8.35;;;13.00;99.90;;;;;;4996398;28;20053;-85
2022/05/11 01:04:59;;;;;;;15.50;8.02;;;12.90;99.90;;;;;;4996576;28;20037;-85
2022/05/11 01:07:27;;;;;;;14.85;7.43;;;12.90;99.90;;;;;;4996191;28;20045;-85
2022/05/11 01:09:53;;;;;;;14.30;8.10;;;12.90;99.90;;;;;;4996324;28;20075;-85
2022/05/11 01:12:22;;;;;;;13.77;7.45;;;13.00;99.90;;;;;;4980078;28;20517;-85
2022/05/11 01:14:54;;;;;;;17.92;7.97;;;12.90;99.90;;;;;;4996362;28;20469;-85
2022/05/11 01:17:24;;;;;;;16.17;7.63;;;12.90;99.90;;;;;;4996291;28;20090;-85
2022/05/11 01:19:50;;;;;;;14.32;8.00;;;13.30;99.90;;;;;;4996789;28;20049;-85
2022/05/11 01:22:21;;;;;;;14.55;7.80;;;13.00;99.90;;;;;;5002632;28;20045;-85
2022/05/11 01:24:48;;;;;;;13.85;7.38;;;12.90;99.90;;;;;;5011019;28;20089;-84
2022/05/11 01:27:27;;;;;;;12.15;7.63;;;13.00;99.90;;;;;;5007923;28;20397;-85
2022/05/11 01:30:19;;;;;;;13.65;6.90;;;12.90;99.90;;;;;;5001656;28;20396;-85
2022/05/11 01:32:48;;;;;;;13.63;7.35;;;12.90;99.90;;;;;;4995731;28;20413;-85
2022/05/11 01:35:29;;;;;;;12.25;6.78;;;12.90;99.90;;;;;;4996244;28;20041;-85
2022/05/11 01:38:46;;;;;;;11.93;6.55;;;12.80;99.90;;;;;;4996007;28;20050;-85
2022/05/11 01:41:32;;;;;;;14.20;6.53;;;12.80;99.90;;;;;;4918327;29;20135;-84
2022/05/11 01:43:58;;;;;;;12.25;6.75;;;12.80;99.90;;;;;;4902315;29;20476;-84
2022/05/11 01:46:24;;;;;;;12.95;6.22;;;12.70;99.90;;;;;;4933732;29;20063;-84
2022/05/11 01:48:50;;;;;;;15.77;7.18;;;12.80;99.90;;;;;;4902379;29;20080;-85
2022/05/11 01:51:18;;;;;;;13.32;7.05;;;12.70;99.90;;;;;;4917759;28;20054;-85
2022/05/11 01:53:44;;;;;;;11.82;6.28;;;12.70;99.90;;;;;;4917942;29;20118;-85
2022/05/11 01:56:12;;;;;;;13.18;6.22;;;12.70;99.90;;;;;;4917939;29;20135;-85
2022/05/11 01:58:38;;;;;;;11.77;6.22;;;12.70;99.90;;;;;;4917886;29;20051;-85
2022/05/11 02:01:04;;;;;;;10.80;6.28;;;12.70;99.90;;;;;;4917620;29;20195;-85
2022/05/11 02:03:30;;;;;;;13.95;6.55;;;12.70;99.90;;;;;;4921369;29;20044;-85
2022/05/11 02:08:43;;;;;;;13.18;6.07;;;12.70;99.90;;;;;;4921445;29;20144;-86
2022/05/11 02:11:09;;;;;;;12.15;6.05;;;12.70;99.90;;;;;;4926488;28;20054;-85
2022/05/11 02:13:35;;;;;;;12.80;6.40;;;12.80;99.90;;;;;;4983091;28;20045;-85
2022/05/11 02:16:06;;;;;;;10.73;5.53;;;12.90;99.90;;;;;;4982678;28;20046;-85
2022/05/11 02:18:32;;;;;;;13.23;6.78;;;12.80;99.90;;;;;;5000036;28;20054;-85
2022/05/11 02:20:58;;;;;;;11.40;5.80;;;12.70;99.90;;;;;;4999056;28;20473;-85
2022/05/11 02:23:25;;;;;;;11.13;5.95;;;12.70;99.90;;;;;;4999325;28;20556;-84
2022/05/11 02:25:52;;;;;;;10.80;5.47;;;12.70;99.90;;;;;;4999239;28;20045;-84
2022/05/11 02:28:21;;;;;;;13.55;6.80;;;12.70;99.90;;;;;;4999081;28;20045;-85
2022/05/11 02:30:48;;;;;;;11.27;5.53;;;12.70;99.90;;;;;;4998760;28;20046;-84
2022/05/11 02:33:14;;;;;;;11.80;5.35;;;13.10;99.90;;;;;;4998945;28;20042;-85
2022/05/11 02:35:41;;;;;;;11.63;4.95;;;12.80;99.90;;;;;;4998723;28;20050;-85
2022/05/11 02:38:23;;;;;;;14.35;5.85;;;12.80;99.90;;;;;;5016382;28;20482;-85
2022/05/11 02:40:49;;;;;;;13.52;5.57;;;12.70;99.90;;;;;;4998844;28;20078;-84
2022/05/11 02:43:15;;;;;;;13.70;5.60;;;12.80;99.90;;;;;;4998656;28;20092;-85
2022/05/11 02:45:42;;;;;;;10.48;4.97;;;12.80;99.90;;;;;;5016291;28;20042;-85
2022/05/11 02:48:10;;;;;;;9.55;4.80;;;12.80;99.90;;;;;;4998547;28;20134;-85
2022/05/11 02:50:43;;;;;;;9.40;4.75;;;12.70;99.90;;;;;;4998465;28;20056;-85
2022/05/11 02:53:11;;;;;;;10.57;5.18;;;12.70;99.90;;;;;;4998521;28;20038;-85
2022/05/11 02:55:38;;;;;;;11.98;5.22;;;12.70;99.90;;;;;;4998780;28;20125;-85
2022/05/11 02:58:05;;;;;;;11.95;5.90;;;12.70;99.90;;;;;;4982230;28;20046;-85
2022/05/11 03:00:31;;;;;;;10.38;5.03;;;12.70;99.90;;;;;;4998310;28;20493;-85
2022/05/11 03:02:59;;;;;;;9.50;4.95;;;12.80;99.90;;;;;;4982169;28;20112;-85
2022/05/11 03:05:25;;;;;;;10.63;4.93;;;12.70;99.90;;;;;;4998274;28;20046;-85
2022/05/11 03:07:50;;;;;;;9.93;5.10;;;12.70;99.90;;;;;;4998297;28;20050;-85
2022/05/11 03:10:16;;;;;;;8.60;4.28;;;12.70;99.90;;;;;;4998160;28;20052;-85
2022/05/11 03:12:42;;;;;;;12.55;5.10;;;12.70;99.90;;;;;;4997823;28;20045;-85
2022/05/11 03:15:08;;;;;;;11.82;5.40;;;12.70;99.90;;;;;;4997490;28;20512;-85
2022/05/11 03:17:35;;;;;;;10.20;4.47;;;12.70;99.90;;;;;;5015822;28;20116;-85
2022/05/11 03:20:01;;;;;;;12.02;4.53;;;12.70;99.90;;;;;;5016122;28;20128;-85
2022/05/11 03:22:27;;;;;;;8.43;4.28;;;13.00;99.90;;;;;;4998057;28;20026;-85
2022/05/11 03:24:52;;;;;;;9.77;4.80;;;12.70;99.90;;;;;;4998091;28;20049;-85
2022/05/11 03:27:18;;;;;;;8.32;4.28;;;12.70;99.90;;;;;;4981663;28;20069;-85
2022/05/11 03:29:44;;;;;;;11.70;4.60;;;12.70;99.90;;;;;;5016940;28;20085;-85
2022/05/11 03:34:54;;;;;;;13.98;4.80;;;12.70;99.90;;;;;;5016997;28;20115;-85
2022/05/11 03:37:20;;;;;;;9.95;4.43;;;12.70;99.90;;;;;;5015335;28;20477;-85
2022/05/11 03:39:46;;;;;;;11.73;4.68;;;12.70;99.90;;;;;;5016033;28;20046;-85
2022/05/11 03:42:15;;;;;;;9.60;4.13;;;12.70;99.90;;;;;;4997629;28;20398;-85
2022/05/11 03:44:41;;;;;;;12.00;4.57;;;12.80;99.90;;;;;;4997437;28;20042;-85
2022/05/11 03:47:06;;;;;;;9.93;4.90;;;12.70;99.90;;;;;;4997408;28;20383;-84
2022/05/11 03:49:33;;;;;;;13.55;6.65;;;12.80;99.90;;;;;;4981172;28;20080;-84
2022/05/11 03:51:59;;;;;;;12.93;4.80;;;12.70;99.90;;;;;;4997325;28;20057;-85
2022/05/11 03:54:25;;;;;;;10.20;5.10;;;12.70;99.90;;;;;;4997411;28;20092;-85
2022/05/11 03:56:50;;;;;;;15.13;5.10;;;12.70;99.90;;;;;;5015128;28;20045;-85
2022/05/11 03:59:16;;;;;;;13.45;4.78;;;12.70;99.90;;;;;;4998477;28;20046;-84
2022/05/11 04:01:42;;;;;;;12.05;5.35;;;12.70;99.90;;;;;;4997042;28;20062;-85
2022/05/11 04:04:08;;;;;;;12.93;4.97;;;12.70;99.90;;;;;;4997074;28;20108;-85
2022/05/11 04:06:34;;;;;;;12.50;4.85;;;12.80;99.90;;;;;;4997079;28;20049;-85
2022/05/11 04:09:00;;;;;;;10.18;4.93;;;12.70;99.90;;;;;;4997286;28;20042;-85
2022/05/11 04:11:26;;;;;;;12.88;4.80;;;12.80;99.90;;;;;;4997127;28;20037;-85
2022/05/11 04:13:53;;;;;;;10.15;4.30;;;12.80;99.90;;;;;;4997088;28;20096;-85
2022/05/11 04:16:19;;;;;;;14.52;4.65;;;12.80;99.90;;;;;;4996708;28;20050;-85
2022/05/11 04:18:45;;;;;;;10.18;4.63;;;12.80;99.90;;;;;;4996990;28;20102;-85
2022/05/11 04:21:12;;;;;;;9.43;4.60;;;12.80;99.90;;;;;;4997033;28;20134;-85
2022/05/11 04:23:41;;;;;;;9.63;3.95;;;12.80;99.90;;;;;;4996616;28;20077;-85
2022/05/11 04:26:08;;;;;;;13.27;5.43;;;12.80;99.90;;;;;;4996381;28;20042;-85
2022/05/11 04:28:34;;;;;;;12.25;4.43;;;13.10;99.90;;;;;;5014135;28;20087;-85
2022/05/11 04:31:04;;;;;;;13.68;5.18;;;12.80;99.90;;;;;;4996490;28;20053;-85
2022/05/11 04:33:30;;;;;;;9.77;4.15;;;12.80;99.90;;;;;;4996613;28;20417;-85
2022/05/11 04:35:56;;;;;;;12.02;5.35;;;13.10;99.90;;;;;;4996738;28;20050;-85
2022/05/11 04:38:22;;;;;;;11.75;4.80;;;12.90;99.90;;;;;;4996762;28;20042;-85
2022/05/11 04:40:48;;;;;;;10.18;4.95;;;12.90;99.90;;;;;;4997107;28;20053;-85
2022/05/11 04:43:15;;;;;;;8.77;4.63;;;12.80;99.90;;;;;;4996591;28;20048;-85
2022/05/11 04:45:43;;;;;;;11.93;4.80;;;12.90;99.90;;;;;;4996562;28;20108;-85
2022/05/11 04:48:09;;;;;;;8.80;4.53;;;13.50;99.90;;;;;;4996754;28;20518;-85
2022/05/11 04:50:38;;;;;;;10.80;4.93;;;13.00;99.90;;;;;;4996703;28;20042;-85
2022/05/11 04:53:04;;;;;;;11.40;4.88;;;12.90;99.90;;;;;;4996612;28;20108;-85
2022/05/11 04:55:29;;;;;;;14.23;5.25;;;13.00;99.90;;;;;;4996606;28;20436;-85
2022/05/11 04:57:55;;;;;;;11.95;4.82;;;13.10;99.90;;;;;;4980289;28;20049;-85
2022/05/11 05:00:21;;;;;;;10.07;4.90;;;13.40;99.90;;;;;;5013826;28;20108;-84
2022/05/11 05:02:47;;;;;;;11.15;4.72;;;13.10;99.90;;;;;;4996465;28;20050;-85
2022/05/11 05:05:13;;;;;;;12.15;4.53;;;13.10;99.90;;;;;;4996910;28;20057;-85
2022/05/11 05:07:40;;;;;;;11.75;4.63;;;13.20;99.90;;;;;;5014167;28;20069;-85
2022/05/11 05:10:08;;;;;;;9.80;4.65;;;13.20;99.90;;;;;;4996230;28;20046;-85
2022/05/11 05:12:34;;;;;;;10.70;4.68;;;13.20;99.90;;;;;;4996405;28;20099;-85
2022/05/11 05:15:01;;;;;;;17.17;6.30;;;13.20;99.90;;;;;;4981878;28;20371;-85
2022/05/11 05:17:26;;;;;;;13.18;5.03;;;13.20;99.90;;;;;;5012863;28;20056;-85
2022/05/11 05:19:52;;;;;;;11.73;4.65;;;13.30;99.90;;;;;;4993933;28;20046;-85
2022/05/11 05:22:18;;;;;;;14.10;4.45;;;13.70;99.90;;;;;;4996596;28;20092;-85
2022/05/11 05:24:44;;;;;;;9.70;4.68;;;13.30;99.90;;;;;;5014008;28;20096;-84
2022/05/11 05:27:12;;;;;;;9.40;5.35;;;13.40;99.90;;;;;;5013966;28;20535;-84
2022/05/11 05:32:23;;;;;;;12.48;4.70;;;13.30;99.90;;;;;;4995939;28;20050;-84
2022/05/11 05:34:49;;;;;;;11.88;4.97;;;13.40;99.90;;;;;;4996429;28;20041;-84
2022/05/11 05:37:16;;;;;;;14.75;5.18;;;13.50;99.90;;;;;;4998322;28;20042;-84
2022/05/11 05:39:46;;;;;;;10.88;4.55;;;13.60;99.90;;;;;;5017782;28;20120;-84
2022/05/11 05:42:23;;;;;;;11.65;4.97;;;13.60;99.90;;;;;;4983895;28;20053;-84
2022/05/11 05:44:49;;;;;;;13.75;5.97;;;13.80;99.90;;;;;;5017762;28;20066;-84
2022/05/11 05:47:16;;;;;;;16.42;6.03;;;13.50;99.90;;;;;;5004204;28;20529;-85
2022/05/11 05:49:42;;;;;;;12.27;5.07;;;13.70;99.90;;;;;;5008442;28;20482;-85
2022/05/11 05:52:13;;;;;;;12.48;5.35;;;13.80;99.90;;;;;;5000149;28;20068;-84
2022/05/11 05:54:39;;;;;;;13.95;4.82;;;13.70;99.90;;;;;;5017511;28;20133;-85
2022/05/11 05:57:05;;;;;;;10.75;4.97;;;13.80;99.90;;;;;;4999880;28;20038;-85
2022/05/11 05:59:31;;;;;;;13.73;5.25;;;13.80;99.90;;;;;;4983671;28;20053;-85
2022/05/11 06:01:57;;;;;;;14.00;6.22;;;14.00;99.90;;;;;;4983492;28;20050;-85
2022/05/11 06:04:23;;;;;;;11.27;5.05;;;14.00;99.90;;;;;;5017538;28;20050;-85
2022/05/11 06:06:48;;;;;;;15.52;5.90;;;14.50;99.90;;;;;;4999972;28;20049;-85
2022/05/11 06:09:14;;;;;;;14.73;4.72;;;14.20;99.90;;;;;;4999683;28;20046;-85
2022/05/11 06:11:40;;;;;;;15.57;5.32;;;14.20;99.90;;;;;;4983161;28;20045;-85
2022/05/11 06:14:06;;;;;;;10.02;4.03;;;14.60;99.90;;;;;;4999711;28;20096;-85
2022/05/11 06:16:32;;;;;;;11.27;4.30;;;14.30;99.90;;;;;;4999625;28;20046;-85
2022/05/11 06:18:58;;;;;;;12.13;3.72;;;14.50;99.90;;;;;;4999914;28;20048;-85
2022/05/11 06:21:24;;;;;;;12.63;4.00;;;14.60;99.90;;;;;;4999551;28;20133;-85
2022/05/11 06:23:50;;;;;;;12.48;3.65;;;14.80;99.90;;;;;;4999236;28;20429;-86
2022/05/11 06:26:16;;;;;;;10.35;3.55;;;15.00;99.90;;;;;;4983102;28;20085;-84
2022/05/11 06:28:43;;;;;;;11.35;3.88;;;15.00;99.90;;;;;;4999199;28;20104;-86
2022/05/11 06:31:10;;;;;;;11.82;4.25;;;15.00;99.90;;;;;;4999038;28;20136;-85
2022/05/11 06:33:36;;;;;;;9.73;3.47;;;15.10;99.90;;;;;;4999381;28;20041;-85
2022/05/11 06:36:03;;;;;;;9.68;3.35;;;15.00;99.90;;;;;;4999170;28;20078;-86
2022/05/11 06:38:29;;;;;;;9.20;3.05;;;15.00;99.90;;;;;;4999152;28;20045;-85
2022/05/11 06:40:54;;;;;;;11.52;3.42;;;14.90;99.90;;;;;;4999351;28;20068;-85
2022/05/11 06:43:20;;;;;;;7.75;2.88;;;15.00;99.90;;;;;;4983160;28;20508;-85
2022/05/11 06:45:45;;;;;;;9.52;3.05;;;14.80;99.90;;;;;;4999058;28;20049;-85
2022/05/11 06:48:14;;;;;;;12.70;3.05;;;14.90;99.90;;;;;;4999033;28;20045;-85
2022/05/11 06:50:41;;;;;;;11.57;3.25;;;14.80;99.90;;;;;;4998958;28;20096;-85
2022/05/11 06:53:15;;;;;;;9.18;3.13;;;14.80;99.90;;;;;;4982653;28;20460;-85
2022/05/11 07:01:11;;;;;;;8.10;2.70;;;15.00;99.90;;;;;;4998789;28;20346;-85
2022/05/11 07:03:37;;;;;;;10.20;3.05;;;15.00;99.90;;;;;;4982513;28;20060;-85
2022/05/11 07:06:04;;;;;;;10.25;3.05;;;15.10;99.90;;;;;;4998815;28;20051;-85
2022/05/11 07:08:34;;;;;;;9.57;2.78;;;15.20;99.90;;;;;;4998489;28;20045;-85
2022/05/11 07:13:43;;;;;;;11.70;2.75;;;15.30;99.90;;;;;;4998718;28;20076;-85
2022/05/11 07:16:09;;;;;;;12.82;3.42;;;15.50;99.90;;;;;;4998405;28;20540;-85
2022/05/11 07:18:35;;;;;;;8.07;2.47;;;15.60;99.90;;;;;;4998425;28;20108;-85
2022/05/11 07:21:00;;;;;;;17.23;2.90;;;15.60;99.90;;;;;;4998582;28;20119;-85
2022/05/11 07:23:28;;;;;;;9.95;2.70;;;15.60;99.90;;;;;;4998513;28;20053;-85
2022/05/11 07:25:54;;;;;;;7.80;2.75;;;15.60;99.90;;;;;;4998360;28;20038;-85
2022/05/11 07:28:19;;;;;;;8.40;2.58;;;15.60;99.90;;;;;;4998116;28;20065;-86
2022/05/11 07:30:47;;;;;;;14.85;2.70;;;15.60;99.90;;;;;;4998109;28;20374;-85
2022/05/11 07:33:14;;;;;;;10.13;2.63;;;15.70;99.90;;;;;;4998349;28;20394;-85
2022/05/11 07:35:41;;;;;;;14.05;2.78;;;15.70;99.90;;;;;;4981810;28;20061;-85
2022/05/11 07:38:12;;;;;;;12.93;3.00;;;15.70;99.90;;;;;;4997802;28;20042;-84
2022/05/11 07:40:39;;;;;;;11.23;2.60;;;15.80;99.90;;;;;;4981882;28;20038;-85
2022/05/11 07:43:04;;;;;;;12.20;2.47;;;15.90;99.90;;;;;;4997983;28;20429;-85
2022/05/11 07:45:30;;;;;;;12.80;3.08;;;16.00;99.90;;;;;;4997729;28;20049;-85
2022/05/11 07:47:56;;;;;;;9.43;2.38;;;16.40;99.90;;;;;;5015456;28;20108;-86
2022/05/11 07:50:21;;;;;;;11.90;2.58;;;16.20;99.90;;;;;;4997613;28;20046;-86
2022/05/11 07:52:47;;;;;;;10.02;3.10;;;16.20;99.90;;;;;;4997692;28;20443;-85
2022/05/11 07:55:15;;;;;;;12.65;2.50;;;16.20;99.90;;;;;;4997584;28;20543;-86
2022/05/11 08:00:28;;;;;;;19.40;3.13;;;16.30;99.90;;;;;;4999848;28;20068;-87
2022/05/11 08:02:54;;;;;;;16.15;3.10;;;16.40;99.90;;;;;;5008162;28;20057;-87
2022/05/11 08:05:21;;;;;;;10.95;2.38;;;16.50;99.90;;;;;;4998416;28;20050;-85
2022/05/11 08:07:55;;;;;;;12.30;3.13;;;16.60;99.90;;;;;;4997318;28;20042;-85
2022/05/11 08:10:27;;;;;;;11.13;3.17;;;17.00;99.90;;;;;;5015015;28;20044;-85
2022/05/11 08:12:53;;;;;;;14.00;2.80;;;17.10;99.90;;;;;;4997622;28;20296;-85
2022/05/11 08:15:21;;;;;;;10.77;2.70;;;17.20;99.90;;;;;;5014875;28;20500;-85
2022/05/11 08:17:49;;;;;;;14.27;3.10;;;17.10;99.90;;;;;;4997148;28;20111;-85
2022/05/11 08:20:21;;;;;;;12.68;2.63;;;17.00;99.90;;;;;;4997141;28;20048;-85
2022/05/11 08:22:47;;;;;;;10.35;2.60;;;17.00;99.90;;;;;;4997434;28;20394;-85
2022/05/11 08:25:16;;;;;;;11.18;2.53;;;16.90;99.90;;;;;;4996939;28;20052;-83
2022/05/11 08:27:42;;;;;;;8.70;2.60;;;16.90;99.90;;;;;;4997724;28;20492;-86
2022/05/11 08:35:39;;;;;;;12.77;3.08;;;16.90;99.90;;;;;;4996802;28;20056;-85
2022/05/11 08:38:05;;;;;;;13.68;3.05;;;17.00;99.90;;;;;;4980961;28;20478;-86
2022/05/11 08:40:39;;;;;;;11.35;2.60;;;17.20;99.90;;;;;;5005765;28;20049;-85
2022/05/11 08:43:10;;;;;;;12.50;3.25;;;17.10;99.90;;;;;;5004517;28;20042;-85
2022/05/11 08:45:54;;;;;;;13.43;2.78;;;17.30;99.90;;;;;;5003642;28;20477;-85
2022/05/11 08:48:34;;;;;;;12.20;2.67;;;17.60;99.90;;;;;;5005182;28;20095;-85
2022/05/11 08:51:02;;;;;;;10.25;2.67;;;17.60;99.90;;;;;;4997283;28;20505;-86
2022/05/11 08:53:37;;;;;;;9.75;2.78;;;17.50;99.90;;;;;;4997133;28;20045;-86
2022/05/11 08:56:14;;;;;;;15.27;3.30;;;17.40;99.90;;;;;;4996801;28;20053;-85
2022/05/11 08:58:45;;;;;;;10.10;2.90;;;17.40;99.90;;;;;;4997016;28;20393;-85
2022/05/11 09:01:34;;;;;;;13.77;3.53;;;17.40;99.90;;;;;;4993605;28;20069;-85
2022/05/11 09:04:06;;;;;;;16.13;3.20;;;17.40;99.90;;;;;;4983981;28;20057;-86
2022/05/11 09:06:32;;;;;;;12.65;3.00;;;17.50;99.90;;;;;;4993505;28;20042;-85
2022/05/11 09:09:01;;;;;;;11.65;3.30;;;17.40;99.90;;;;;;4993345;28;20053;-85
2022/05/11 09:11:34;;;;;;;13.93;2.95;;;17.30;99.90;;;;;;4997644;28;20039;-85
2022/05/11 09:14:01;;;;;;;13.48;2.95;;;17.60;99.90;;;;;;5004910;28;20085;-85
2022/05/11 09:16:43;;;;;;;11.68;3.35;;;17.80;99.90;;;;;;4999778;28;20050;-85
2022/05/11 09:19:16;;;;;;;12.55;3.63;;;18.00;99.90;;;;;;4993283;28;20052;-85
2022/05/11 09:22:10;;;;;;;11.68;3.30;;;17.90;99.90;;;;;;4994506;28;20042;-85
2022/05/11 09:24:48;;;;;;;11.73;3.20;;;17.70;99.90;;;;;;4994158;28;20672;-85
2022/05/11 09:27:33;;;;;;;13.18;3.65;;;17.50;99.90;;;;;;4993346;28;20056;-85
2022/05/11 09:30:21;;;;;;;11.00;3.22;;;17.30;99.90;;;;;;4993280;28;20127;-84
2022/05/11 09:32:47;;;;;;;10.63;2.97;;;17.40;99.90;;;;;;4993058;28;20061;-85
2022/05/11 09:35:36;;;;;;;13.45;3.65;;;17.60;99.90;;;;;;4993088;28;20394;-85
2022/05/11 09:38:01;;;;;;;13.13;3.33;;;17.40;99.90;;;;;;4992961;28;20078;-86
2022/05/11 09:40:29;;;;;;;12.25;3.33;;;17.50;99.90;;;;;;4976725;28;20437;-85
2022/05/11 09:43:04;;;;;;;11.55;3.10;;;17.70;99.90;;;;;;4992959;28;20046;-85
2022/05/11 09:45:48;;;;;;;13.75;3.78;;;18.00;99.90;;;;;;4993036;28;20058;-86
2022/05/11 09:48:20;;;;;;;13.77;3.58;;;18.20;99.90;;;;;;4992787;28;20046;-85
2022/05/11 09:50:52;;;;;;;11.35;3.50;;;18.40;99.90;;;;;;4994911;28;20448;-85
2022/05/11 09:53:33;;;;;;;10.93;4.20;;;18.40;99.90;;;;;;4993497;28;20386;-85
2022/05/11 09:56:33;;;;;;;12.40;4.55;;;18.30;99.90;;;;;;4992919;28;20074;-85
2022/05/11 09:59:25;;;;;;;47.47;9.52;;;18.40;99.90;;;;;;4918188;29;20160;-85
2022/05/11 10:02:34;;;;;;;18.40;4.70;;;18.50;99.90;;;;;;4902208;29;20076;-85
2022/05/11 10:05:19;;;;;;;14.32;4.63;;;18.80;99.90;;;;;;4934051;29;20052;-85
2022/05/11 10:08:31;;;;;;;12.63;3.97;;;18.90;99.90;;;;;;4918033;29;20131;-87
2022/05/11 10:11:06;;;;;;;11.77;3.60;;;18.70;99.90;;;;;;4892674;29;20063;-85
2022/05/11 10:13:42;;;;;;;11.50;4.07;;;18.80;99.90;;;;;;4902615;29;20061;-85
2022/05/11 10:22:22;;;;;;;12.25;3.55;;;19.30;99.90;;;;;;4918120;28;20708;-85
2022/05/11 10:24:59;;;;;;;8.55;3.08;;;19.10;99.90;;;;;;4921670;29;20111;-86
2022/05/11 10:27:48;;;;;;;12.05;2.90;;;19.10;99.90;;;;;;4921230;29;20415;-86
2022/05/11 10:30:25;;;;;;;11.43;3.13;;;19.00;99.90;;;;;;4905594;29;20052;-86
2022/05/11 10:33:22;;;;;;;14.13;3.67;;;19.00;99.90;;;;;;4921592;29;20368;-86
2022/05/11 10:36:05;;;;;;;8.32;3.05;;;18.70;99.90;;;;;;4966575;28;20184;-87
2022/05/11 10:38:51;;;;;;;10.15;3.45;;;18.50;99.90;;;;;;4995872;28;20055;-88
2022/05/11 10:41:29;;;;;;;8.98;3.38;;;18.40;99.90;;;;;;4995984;28;20445;-86
2022/05/11 10:43:59;;;;;;;10.23;3.22;;;18.30;99.90;;;;;;4996241;28;20107;-86
2022/05/11 10:46:59;;;;;;;12.90;3.65;;;18.40;99.90;;;;;;4995594;28;20126;-86
2022/05/11 10:49:42;;;;;;;11.30;3.08;;;18.50;99.90;;;;;;4985342;28;20054;-87
2022/05/11 10:52:32;;;;;;;10.43;2.90;;;18.70;99.90;;;;;;4995615;28;20042;-86
2022/05/11 10:55:16;;;;;;;6.63;2.42;;;18.90;99.90;;;;;;4979763;28;20154;-86
2022/05/11 10:58:03;;;;;;;9.95;2.70;;;19.00;99.90;;;;;;4996328;28;20097;-86
2022/05/11 11:00:32;;;;;;;9.70;2.75;;;19.10;99.90;;;;;;4978981;28;20557;-86
2022/05/11 11:03:14;;;;;;;11.35;2.67;;;19.10;99.90;;;;;;4995488;28;20082;-86
2022/05/11 11:05:40;;;;;;;9.25;2.53;;;19.00;99.90;;;;;;4979050;28;20128;-86
2022/05/11 11:08:21;;;;;;;8.38;2.30;;;19.30;99.90;;;;;;4979067;28;20137;-87
2022/05/11 11:10:58;;;;;;;8.63;1.95;;;19.60;99.90;;;;;;4979068;28;20050;-87
2022/05/11 11:13:30;;;;;;;7.65;2.20;;;19.70;99.90;;;;;;4978978;28;20453;-86
2022/05/11 11:15:57;;;;;;;10.25;2.65;;;19.60;99.90;;;;;;4978724;28;20121;-87
2022/05/11 11:18:36;;;;;;;9.25;1.90;;;20.00;99.90;;;;;;4979001;28;20042;-86
2022/05/11 11:21:02;;;;;;;8.60;1.88;;;19.90;99.90;;;;;;4995092;28;20141;-87
2022/05/11 11:23:32;;;;;;;10.88;2.10;;;19.80;99.90;;;;;;4995164;28;20073;-88
2022/05/11 11:26:13;;;;;;;10.65;1.80;;;19.80;99.90;;;;;;4978896;28;20053;-86
2022/05/11 11:28:42;;;;;;;9.50;1.85;;;20.00;99.90;;;;;;4978672;28;20045;-86
2022/05/11 11:31:12;;;;;;;7.43;1.75;;;20.10;99.90;;;;;;4994706;28;20042;-86
2022/05/11 11:34:04;;;;;;;6.13;1.90;;;19.80;99.90;;;;;;4994800;28;20405;-86
2022/05/11 11:36:33;;;;;;;6.25;1.65;;;19.60;99.90;;;;;;4970525;28;20538;-87
2022/05/11 11:39:01;;;;;;;7.47;1.85;;;19.50;99.90;;;;;;4994904;28;20050;-87
2022/05/11 11:41:28;;;;;;;7.70;2.05;;;19.40;99.90;;;;;;4978618;28;20042;-87
2022/05/11 11:44:01;;;;;;;6.88;1.45;;;19.40;99.90;;;;;;4994854;28;20050;-86
2022/05/11 11:46:30;;;;;;;10.25;1.73;;;19.50;99.90;;;;;;4994582;28;20046;-87
2022/05/11 11:49:10;;;;;;;12.00;2.17;;;19.90;99.90;;;;;;4994721;28;20058;-86
2022/05/11 11:52:03;;;;;;;8.50;1.63;;;20.40;99.90;;;;;;4994406;28;20093;-86
2022/05/11 11:54:39;;;;;;;7.82;1.80;;;20.50;99.90;;;;;;4978009;28;20569;-86
2022/05/11 11:57:29;;;;;;;10.57;2.20;;;20.50;99.90;;;;;;4994411;28;20105;-86
2022/05/11 12:00:25;;;;;;;9.52;2.30;;;20.60;99.90;;;;;;4995662;28;20034;-87
2022/05/11 12:02:52;;;;;;;6.22;1.67;;;20.60;99.90;;;;;;4997237;28;20108;-88
2022/05/11 12:05:39;;;;;;;7.70;1.77;;;20.40;99.90;;;;;;4997949;28;20371;-86
2022/05/11 12:16:45;;;;;;;7.88;2.38;;;21.10;99.90;;;;;;5015175;28;20052;-88
2022/05/11 12:19:14;;;;;;;10.40;2.42;;;20.90;99.90;;;;;;4998232;28;20072;-86
2022/05/11 12:21:41;;;;;;;8.18;2.10;;;21.10;99.90;;;;;;4997126;28;20549;-86
2022/05/11 12:24:21;;;;;;;7.97;2.08;;;21.00;99.90;;;;;;4981479;28;20512;-85
2022/05/11 12:26:56;;;;;;;7.20;2.42;;;20.90;99.90;;;;;;4997402;28;20520;-85
2022/05/11 12:32:07;;;;;;;10.27;2.50;;;21.10;99.90;;;;;;4996726;28;20515;-85
2022/05/11 12:34:41;;;;;;;9.13;2.22;;;21.40;99.90;;;;;;5002971;28;20073;-85
2022/05/11 12:37:30;;;;;;;9.88;2.47;;;21.20;99.90;;;;;;4984901;28;20053;-87
2022/05/11 12:40:13;;;;;;;8.50;2.20;;;20.80;99.90;;;;;;4980732;28;20052;-85
2022/05/11 12:42:43;;;;;;;12.38;2.47;;;20.90;99.90;;;;;;4980720;28;20038;-88
2022/05/11 12:45:13;;;;;;;7.53;2.33;;;20.90;99.90;;;;;;4997037;28;20050;-90
2022/05/11 12:47:48;;;;;;;9.65;2.15;;;21.00;99.90;;;;;;4996670;28;20497;-87
2022/05/11 12:50:22;;;;;;;9.57;2.00;;;21.20;99.90;;;;;;5014330;28;20049;-87
2022/05/11 12:53:07;;;;;;;6.82;1.98;;;21.20;99.90;;;;;;4996649;28;20370;-85
2022/05/11 12:55:35;;;;;;;9.60;2.25;;;21.20;99.90;;;;;;5014205;28;20081;-85
2022/05/11 12:58:03;;;;;;;6.25;1.88;;;21.30;99.90;;;;;;4996676;28;20057;-85
2022/05/11 13:00:30;;;;;;;11.77;2.60;;;21.30;99.90;;;;;;5013976;28;20050;-86
2022/05/11 13:02:56;;;;;;;11.10;2.40;;;21.30;99.90;;;;;;4996572;28;20096;-85
2022/05/11 13:05:23;;;;;;;8.50;1.98;;;21.50;99.90;;;;;;4996460;28;20056;-86
2022/05/11 13:08:00;;;;;;;6.82;1.73;;;21.60;99.90;;;;;;4980205;28;20493;-84
2022/05/11 13:10:37;;;;;;;7.68;1.92;;;21.70;99.90;;;;;;5002030;28;20042;-86
2022/05/11 13:13:11;;;;;;;10.20;2.03;;;21.80;99.90;;;;;;4994560;28;20180;-84
2022/05/11 13:15:41;;;;;;;10.55;2.33;;;22.00;99.90;;;;;;5020590;28;20485;-84
2022/05/11 13:18:11;;;;;;;9.20;2.17;;;22.10;99.90;;;;;;4996647;28;20054;-85
2022/05/11 13:20:41;;;;;;;7.95;1.88;;;21.80;99.90;;;;;;4996515;28;20049;-85
2022/05/11 13:23:49;;;;;;;10.68;2.40;;;21.70;99.90;;;;;;4996552;28;20046;-85
2022/05/11 13:26:41;;;;;;;7.20;2.00;;;21.80;99.90;;;;;;4918430;29;20062;-85
2022/05/11 13:29:15;;;;;;;8.63;1.77;;;21.50;99.90;;;;;;4934282;29;20048;-86
2022/05/11 13:31:44;;;;;;;7.00;2.25;;;21.60;99.90;;;;;;4918182;29;20055;-85
2022/05/11 13:34:29;;;;;;;11.73;2.45;;;21.10;99.90;;;;;;4934334;29;20060;-85
2022/05/11 13:36:56;;;;;;;12.48;2.75;;;20.80;99.90;;;;;;4918545;29;20172;-85
2022/05/11 13:39:40;;;;;;;8.23;2.28;;;20.80;99.90;;;;;;4918279;29;20052;-84